Time;durP1;ratioP1;P1;durP2;ratioP2;P2;SDS_P1;SDS_P2;PMS_P1;PMS_P2;Temp;Humidity;BMP_temperature;BMP_pressure;BME280_temperature;BME280_humidity;BME280_pressure;Samples;Min_cycle;Max_cycle;Signal;HPM_P1;HPM_P2
2020/12/27 00:02:20;;;;;;;20.50;13.10;;;;;;;3.83;100.00;101785.47;4975836;28;20076;-76
2020/12/27 00:05:06;;;;;;;19.30;12.35;;;;;;;3.56;100.00;101790.78;4975535;28;20380;-75
2020/12/27 00:07:52;;;;;;;18.98;12.55;;;;;;;3.47;100.00;101798.28;4974487;28;20027;-75
2020/12/27 00:10:38;;;;;;;19.63;11.68;;;;;;;3.65;100.00;101798.78;4975882;28;20034;-75
2020/12/27 00:13:23;;;;;;;21.10;12.75;;;;;;;3.84;100.00;101800.16;4975561;28;20431;-77
2020/12/27 00:16:09;;;;;;;19.90;12.80;;;;;;;3.43;100.00;101805.94;4974583;28;20027;-75
2020/12/27 00:18:55;;;;;;;24.13;16.20;;;;;;;3.52;100.00;101807.06;4975572;28;20030;-75
2020/12/27 00:21:41;;;;;;;16.42;11.50;;;;;;;3.44;100.00;101812.84;4975422;28;20038;-75
2020/12/27 00:24:27;;;;;;;17.77;12.63;;;;;;;3.57;100.00;101821.03;4975800;28;20026;-75
2020/12/27 00:27:16;;;;;;;23.25;15.00;;;;;;;3.77;100.00;101817.25;4975981;28;20442;-75
2020/12/27 00:30:03;;;;;;;27.00;15.95;;;;;;;3.95;100.00;101812.56;4974845;28;20122;-75
2020/12/27 00:32:49;;;;;;;22.70;13.68;;;;;;;4.24;100.00;101816.81;4975273;28;20050;-76
2020/12/27 00:35:35;;;;;;;21.00;13.65;;;;;;;4.10;100.00;101814.69;4975055;28;20118;-76
2020/12/27 00:38:20;;;;;;;22.25;14.48;;;;;;;3.93;100.00;101816.84;4975362;28;20120;-76
2020/12/27 00:41:06;;;;;;;25.85;15.77;;;;;;;3.80;100.00;101827.72;4976146;28;20096;-76
2020/12/27 00:43:52;;;;;;;24.98;15.32;;;;;;;3.97;100.00;101820.38;4980019;28;20031;-75
2020/12/27 00:46:38;;;;;;;21.60;12.77;;;;;;;3.81;100.00;101816.50;4979805;28;20031;-75
2020/12/27 00:49:24;;;;;;;15.95;10.38;;;;;;;3.80;100.00;101808.69;4978494;28;20473;-75
2020/12/27 00:52:10;;;;;;;17.35;10.15;;;;;;;3.89;100.00;101817.59;4978817;28;20061;-76
2020/12/27 00:54:55;;;;;;;14.13;9.23;;;;;;;3.82;100.00;101813.06;4979213;28;20101;-76
2020/12/27 00:57:41;;;;;;;14.23;8.52;;;;;;;3.66;100.00;101813.50;4978345;28;20039;-75
2020/12/27 01:00:27;;;;;;;14.45;8.88;;;;;;;3.75;100.00;101816.38;4979213;28;20026;-76
2020/12/27 01:03:13;;;;;;;12.13;8.40;;;;;;;3.83;100.00;101808.78;4979610;28;20030;-76
2020/12/27 01:05:58;;;;;;;12.00;8.40;;;;;;;4.09;100.00;101807.75;4977939;28;20066;-75
2020/12/27 01:08:44;;;;;;;13.50;8.90;;;;;;;4.12;100.00;101805.22;4980110;28;20022;-76
2020/12/27 01:11:30;;;;;;;12.75;8.18;;;;;;;3.78;100.00;101807.78;4979920;28;20089;-75
2020/12/27 01:14:16;;;;;;;11.57;8.07;;;;;;;3.84;100.00;101807.94;4977727;28;20024;-75
2020/12/27 01:17:02;;;;;;;17.65;9.68;;;;;;;3.57;100.00;101799.41;4979285;28;20530;-76
2020/12/27 01:19:47;;;;;;;13.32;8.93;;;;;;;3.70;100.00;101798.94;4977292;28;20038;-76
2020/12/27 01:22:33;;;;;;;17.13;10.68;;;;;;;3.88;100.00;101795.13;4978875;28;20105;-76
2020/12/27 01:25:19;;;;;;;23.08;13.13;;;;;;;3.61;100.00;101783.09;4979542;28;20431;-76
2020/12/27 01:28:05;;;;;;;22.58;12.52;;;;;;;3.62;100.00;101785.75;4977730;28;20042;-76
2020/12/27 01:30:51;;;;;;;20.30;12.75;;;;;;;3.51;100.00;101788.88;4978254;28;20117;-76
2020/12/27 01:33:36;;;;;;;21.30;13.50;;;;;;;3.54;100.00;101794.16;4978941;28;20089;-76
2020/12/27 01:36:33;;;;;;;28.10;14.05;;;;;;;3.50;100.00;101789.72;4977625;28;20030;-76
2020/12/27 01:39:18;;;;;;;22.60;13.73;;;;;;;3.87;100.00;101789.88;4978706;28;20037;-76
2020/12/27 01:42:04;;;;;;;22.00;12.43;;;;;;;3.57;100.00;101789.94;4978063;28;20403;-76
2020/12/27 01:44:53;;;;;;;18.05;11.07;;;;;;;3.45;100.00;101797.34;4978365;28;20038;-76
2020/12/27 01:47:38;;;;;;;15.23;9.80;;;;;;;3.71;100.00;101798.97;4977972;28;20035;-76
2020/12/27 01:50:26;;;;;;;16.88;10.88;;;;;;;3.58;100.00;101802.03;4979038;28;20124;-76
2020/12/27 01:53:12;;;;;;;16.67;10.63;;;;;;;3.67;100.00;101814.38;4977284;28;20023;-75
2020/12/27 01:56:01;;;;;;;20.75;11.82;;;;;;;3.69;100.00;101821.34;4976748;28;20019;-76
2020/12/27 01:58:50;;;;;;;19.17;11.10;;;;;;;3.80;100.00;101830.31;4977832;28;20031;-75
2020/12/27 02:01:37;;;;;;;14.65;9.48;;;;;;;3.51;100.00;101836.41;4977795;28;20358;-76
2020/12/27 02:04:24;;;;;;;15.20;10.05;;;;;;;3.73;100.00;101824.91;4978292;28;20034;-75
2020/12/27 02:07:12;;;;;;;14.77;10.10;;;;;;;3.52;100.00;101827.78;4977578;28;20037;-75
2020/12/27 02:09:59;;;;;;;16.10;10.35;;;;;;;3.71;100.00;101811.94;4978334;28;20034;-76
2020/12/27 02:12:45;;;;;;;18.13;11.90;;;;;;;3.58;100.00;101809.81;4977524;28;20090;-77
2020/12/27 02:15:31;;;;;;;19.33;11.93;;;;;;;3.79;100.00;101818.19;4977842;28;20464;-76
2020/12/27 02:18:16;;;;;;;22.90;13.35;;;;;;;3.83;100.00;101814.84;4977384;28;20047;-75
2020/12/27 02:21:02;;;;;;;18.90;12.50;;;;;;;3.63;100.00;101808.25;4977510;28;20030;-77
2020/12/27 02:23:48;;;;;;;24.75;13.00;;;;;;;3.30;100.00;101812.44;4977202;28;20046;-75
2020/12/27 02:26:34;;;;;;;18.63;12.32;;;;;;;3.80;100.00;101816.47;4977786;28;20081;-75
2020/12/27 02:29:20;;;;;;;15.90;11.05;;;;;;;3.88;100.00;101812.38;4977277;28;20415;-76
2020/12/27 02:32:05;;;;;;;14.57;9.35;;;;;;;3.72;100.00;101808.50;4977735;28;20051;-76
2020/12/27 02:34:51;;;;;;;15.13;9.32;;;;;;;3.76;100.00;101814.63;4976328;28;20027;-77
2020/12/27 02:37:37;;;;;;;11.88;8.40;;;;;;;3.93;100.00;101809.06;4977255;28;20023;-76
2020/12/27 02:40:23;;;;;;;13.70;9.10;;;;;;;4.03;100.00;101794.63;4976948;28;20038;-76
2020/12/27 02:43:14;;;;;;;11.93;8.00;;;;;;;4.07;100.00;101799.91;4976461;28;20070;-76
2020/12/27 02:45:59;;;;;;;12.35;7.70;;;;;;;3.76;100.00;101797.38;4977712;28;20041;-76
2020/12/27 02:48:45;;;;;;;11.90;8.27;;;;;;;4.06;100.00;101795.56;4976261;28;20027;-76
2020/12/27 02:51:31;;;;;;;11.25;7.80;;;;;;;4.22;100.00;101795.13;4977084;28;20371;-76
2020/12/27 02:54:17;;;;;;;11.45;7.22;;;;;;;3.97;100.00;101791.88;4976619;28;20026;-76
2020/12/27 02:57:03;;;;;;;11.30;7.43;;;;;;;3.81;100.00;101794.88;4977964;28;20031;-75
2020/12/27 02:59:48;;;;;;;9.52;7.18;;;;;;;3.61;100.00;101780.50;4976780;28;20031;-75
2020/12/27 03:02:34;;;;;;;11.55;8.30;;;;;;;3.65;100.00;101778.06;4977370;28;20060;-76
2020/12/27 03:05:20;;;;;;;10.32;6.57;;;;;;;3.75;100.00;101776.59;4976608;28;20038;-75
2020/12/27 03:08:06;;;;;;;11.32;7.85;;;;;;;3.66;100.00;101779.81;4977262;28;20027;-75
2020/12/27 03:10:51;;;;;;;11.15;7.43;;;;;;;3.44;100.00;101774.88;4976859;28;20567;-76
2020/12/27 03:13:37;;;;;;;10.40;7.60;;;;;;;3.95;100.00;101789.22;4975786;28;20027;-75
2020/12/27 03:16:23;;;;;;;16.85;10.95;;;;;;;3.86;100.00;101801.94;4975958;28;20380;-75
2020/12/27 03:19:09;;;;;;;15.70;10.10;;;;;;;3.82;100.00;101815.66;4977028;28;20428;-75
2020/12/27 03:21:55;;;;;;;16.02;10.38;;;;;;;4.13;100.00;101817.34;4976494;28;20050;-75
2020/12/27 03:24:40;;;;;;;13.27;9.07;;;;;;;3.78;100.00;101808.66;4975536;28;20045;-75
2020/12/27 03:27:26;;;;;;;16.15;10.20;;;;;;;3.90;100.00;101803.78;4975853;28;20043;-75
2020/12/27 03:30:12;;;;;;;11.45;8.27;;;;;;;3.98;100.00;101822.16;4975110;28;20062;-76
2020/12/27 03:32:58;;;;;;;17.75;9.68;;;;;;;3.48;100.00;101813.00;4977001;28;20035;-75
2020/12/27 03:35:43;;;;;;;18.20;11.13;;;;;;;3.48;100.00;101810.41;4977284;28;20030;-75
2020/12/27 03:38:29;;;;;;;18.33;10.70;;;;;;;3.37;100.00;101822.16;4976346;28;20030;-75
2020/12/27 03:41:15;;;;;;;19.40;11.30;;;;;;;3.65;100.00;101824.69;4975962;28;20089;-75
2020/12/27 03:44:01;;;;;;;17.15;11.63;;;;;;;3.74;100.00;101829.28;4976106;28;20062;-76
2020/12/27 03:46:46;;;;;;;17.77;11.35;;;;;;;3.60;100.00;101834.06;4975731;28;20181;-75
2020/12/27 03:49:32;;;;;;;16.10;10.90;;;;;;;3.96;100.00;101835.06;4975188;28;20034;-76
2020/12/27 03:52:18;;;;;;;15.55;10.75;;;;;;;4.27;100.00;101844.53;4975026;28;20368;-75
2020/12/27 03:55:03;;;;;;;12.25;8.30;;;;;;;3.71;100.00;101845.63;4976507;28;20033;-76
2020/12/27 03:57:49;;;;;;;11.55;8.25;;;;;;;3.70;100.00;101843.84;4976982;28;20463;-76
2020/12/27 04:00:35;;;;;;;12.85;8.98;;;;;;;3.94;100.00;101841.91;4976114;28;20410;-75
2020/12/27 04:03:21;;;;;;;11.93;8.30;;;;;;;3.75;100.00;101849.16;4975092;28;20118;-76
2020/12/27 04:06:06;;;;;;;10.55;7.57;;;;;;;3.96;100.00;101841.97;4975510;28;20037;-76
2020/12/27 04:08:52;;;;;;;11.35;7.95;;;;;;;3.77;100.00;101834.53;4976111;28;20049;-75
2020/12/27 04:11:38;;;;;;;13.00;8.18;;;;;;;3.92;100.00;101838.44;4976136;28;20022;-75
2020/12/27 04:14:24;;;;;;;10.90;7.68;;;;;;;3.89;100.00;101842.63;4974969;28;20062;-74
2020/12/27 04:17:09;;;;;;;11.40;8.32;;;;;;;3.92;100.00;101833.25;4975648;28;20018;-76
2020/12/27 04:19:55;;;;;;;13.07;8.48;;;;;;;3.76;100.00;101825.88;4976522;28;20031;-75
2020/12/27 04:22:41;;;;;;;12.98;7.72;;;;;;;3.66;100.00;101823.84;4976290;28;20026;-75
2020/12/27 04:25:27;;;;;;;10.40;7.43;;;;;;;4.00;100.00;101831.72;4976568;28;20030;-75
2020/12/27 04:28:12;;;;;;;8.63;6.07;;;;;;;3.71;100.00;101827.47;4974609;28;20022;-76
2020/12/27 04:30:58;;;;;;;10.45;7.00;;;;;;;3.53;100.00;101829.53;4974523;28;20062;-77
2020/12/27 04:33:44;;;;;;;9.45;6.78;;;;;;;3.88;100.00;101833.09;4974695;28;20033;-76
2020/12/27 04:36:30;;;;;;;8.43;6.05;;;;;;;3.88;100.00;101833.09;4975724;28;20037;-73
2020/12/27 04:39:16;;;;;;;10.70;7.40;;;;;;;3.74;100.00;101827.53;4976701;28;20062;-75
2020/12/27 04:42:02;;;;;;;8.35;6.05;;;;;;;3.62;100.00;101832.38;4976179;28;20067;-75
2020/12/27 04:44:48;;;;;;;9.98;7.18;;;;;;;4.05;100.00;101835.31;4975506;28;20589;-75
2020/12/27 04:47:35;;;;;;;10.90;7.32;;;;;;;3.53;100.00;101833.81;4975181;28;20117;-75
2020/12/27 04:50:26;;;;;;;14.02;8.50;;;;;;;3.61;100.00;101833.22;4974553;28;20034;-75
2020/12/27 04:53:12;;;;;;;13.77;8.35;;;;;;;3.63;100.00;101835.88;4975624;28;20099;-75
2020/12/27 04:56:00;;;;;;;19.52;11.30;;;;;;;3.43;100.00;101831.81;4974983;28;20463;-75
2020/12/27 04:58:48;;;;;;;16.98;10.77;;;;;;;3.27;100.00;101827.94;4974709;28;20034;-75
2020/12/27 05:01:34;;;;;;;13.38;8.90;;;;;;;3.36;100.00;101819.53;4975132;28;20030;-74
2020/12/27 05:04:27;;;;;;;15.88;10.18;;;;;;;3.44;100.00;101829.28;4975463;28;20027;-75
2020/12/27 05:07:20;;;;;;;20.65;11.88;;;;;;;3.42;100.00;101832.66;4975081;28;20067;-75
2020/12/27 05:10:06;;;;;;;19.90;11.27;;;;;;;3.72;100.00;101834.41;4975127;28;20110;-76
2020/12/27 05:12:54;;;;;;;21.77;12.43;;;;;;;3.51;100.00;101843.28;4974672;28;20037;-75
2020/12/27 05:15:41;;;;;;;18.70;11.70;;;;;;;3.46;100.00;101850.06;4974160;28;20416;-75
2020/12/27 05:18:27;;;;;;;19.70;11.75;;;;;;;3.51;100.00;101841.59;4975057;28;20113;-76
2020/12/27 05:21:13;;;;;;;22.65;13.18;;;;;;;3.53;100.00;101839.91;4975434;28;20034;-75
2020/12/27 05:24:00;;;;;;;25.30;14.43;;;;;;;3.47;100.00;101839.75;4974829;28;20085;-75
2020/12/27 05:26:47;;;;;;;26.42;13.43;;;;;;;3.71;100.00;101843.03;4975766;28;20031;-75
2020/12/27 05:29:35;;;;;;;20.35;12.80;;;;;;;3.55;100.00;101832.19;4977433;28;20104;-76
2020/12/27 05:32:23;;;;;;;19.00;10.77;;;;;;;3.35;100.00;101830.72;4978526;28;20059;-76
2020/12/27 05:35:10;;;;;;;25.08;13.90;;;;;;;3.73;100.00;101846.53;4977557;28;20026;-76
2020/12/27 05:38:00;;;;;;;20.95;12.18;;;;;;;3.72;100.00;101846.47;4977724;28;20023;-76
2020/12/27 05:40:45;;;;;;;21.63;12.32;;;;;;;3.83;100.00;101845.97;4977980;28;20031;-75
2020/12/27 05:43:31;;;;;;;19.17;10.93;;;;;;;3.82;100.00;101841.59;4978808;28;20042;-76
2020/12/27 05:46:20;;;;;;;19.08;11.55;;;;;;;3.90;100.00;101839.22;4978666;28;20030;-75
2020/12/27 05:49:06;;;;;;;19.30;11.18;;;;;;;3.62;100.00;101841.88;4977554;28;20030;-76
2020/12/27 05:51:57;;;;;;;19.35;10.85;;;;;;;3.97;100.00;101834.25;4978032;28;20031;-75
2020/12/27 05:54:47;;;;;;;20.38;11.90;;;;;;;3.48;100.00;101833.72;4977818;28;20049;-76
2020/12/27 05:57:34;;;;;;;21.10;12.00;;;;;;;3.47;100.00;101820.72;4978043;28;20033;-76
2020/12/27 06:00:24;;;;;;;21.17;11.73;;;;;;;3.43;100.00;101829.25;4977830;28;20038;-76
2020/12/27 06:03:19;;;;;;;21.80;12.18;;;;;;;3.34;100.00;101821.22;4978082;28;20165;-76
2020/12/27 06:06:08;;;;;;;27.90;13.27;;;;;;;3.29;100.00;101818.47;4976885;28;20366;-76
2020/12/27 06:09:08;;;;;;;27.88;14.88;;;;;;;3.31;100.00;101813.34;4978362;28;20018;-76
2020/12/27 06:11:54;;;;;;;31.40;15.75;;;;;;;3.32;100.00;101815.09;4977009;28;20420;-76
2020/12/27 06:14:42;;;;;;;24.25;13.82;;;;;;;3.26;100.00;101815.78;4977555;28;20035;-76
2020/12/27 06:17:51;;;;;;;25.27;13.55;;;;;;;3.66;100.00;101826.44;4976212;28;20019;-76
2020/12/27 06:20:39;;;;;;;24.10;13.52;;;;;;;3.30;100.00;101828.00;4978061;28;20462;-76
2020/12/27 06:23:25;;;;;;;27.65;14.52;;;;;;;3.25;100.00;101821.81;4977531;28;20035;-76
2020/12/27 06:26:11;;;;;;;23.27;14.05;;;;;;;3.51;100.00;101831.22;4977964;28;20039;-75
2020/12/27 06:28:56;;;;;;;35.70;18.58;;;;;;;3.28;100.00;101821.91;4977723;28;20026;-77
2020/12/27 06:31:42;;;;;;;34.17;19.45;;;;;;;3.69;100.00;101818.78;4976581;28;20046;-77
2020/12/27 06:34:28;;;;;;;32.90;16.27;;;;;;;3.59;100.00;101832.31;4977371;28;20054;-75
2020/12/27 06:37:16;;;;;;;30.40;16.20;;;;;;;3.60;100.00;101841.84;4976731;28;20022;-75
2020/12/27 06:40:01;;;;;;;35.42;18.70;;;;;;;3.26;100.00;101841.69;4977003;28;20034;-75
2020/12/27 06:42:47;;;;;;;28.73;17.17;;;;;;;3.64;100.00;101841.09;4976927;28;20027;-76
2020/12/27 06:45:33;;;;;;;37.40;18.77;;;;;;;3.54;100.00;101833.88;4976774;28;20042;-75
2020/12/27 06:48:36;;;;;;;29.75;16.45;;;;;;;3.72;100.00;101836.09;4978201;28;20027;-74
2020/12/27 06:51:42;;;;;;;39.30;20.60;;;;;;;3.85;100.00;101825.25;4978001;28;20201;-75
2020/12/27 06:54:46;;;;;;;37.13;20.90;;;;;;;3.64;100.00;101835.91;4977335;28;20447;-75
2020/12/27 06:57:46;;;;;;;40.33;20.55;;;;;;;3.46;100.00;101840.56;4977558;28;20066;-75
2020/12/27 07:00:32;;;;;;;36.63;20.40;;;;;;;3.48;100.00;101843.19;4976669;28;20053;-75
2020/12/27 07:03:20;;;;;;;31.80;18.42;;;;;;;3.43;100.00;101842.19;4975766;28;20026;-75
2020/12/27 07:06:25;;;;;;;36.40;18.23;;;;;;;3.49;100.00;101847.53;4976612;28;20022;-74
2020/12/27 07:09:21;;;;;;;30.17;16.90;;;;;;;3.30;100.00;101835.75;4976596;28;20030;-76
2020/12/27 07:12:11;;;;;;;32.85;18.25;;;;;;;3.25;100.00;101820.91;4976493;28;20041;-76
2020/12/27 07:14:57;;;;;;;31.42;18.10;;;;;;;3.39;100.00;101822.22;4976348;28;20035;-76
2020/12/27 07:17:44;;;;;;;24.90;15.32;;;;;;;3.60;100.00;101802.97;4963359;28;20125;-76
2020/12/27 07:20:31;;;;;;;23.98;14.70;;;;;;;3.51;100.00;101799.25;4977713;28;20229;-75
2020/12/27 07:23:31;;;;;;;22.30;13.80;;;;;;;3.27;100.00;101795.97;4976271;28;20026;-75
2020/12/27 07:26:17;;;;;;;25.52;14.85;;;;;;;3.26;100.00;101789.03;4975728;28;20068;-76
2020/12/27 07:29:06;;;;;;;26.58;16.10;;;;;;;3.49;100.00;101794.03;4976112;28;20081;-76
2020/12/27 07:31:54;;;;;;;29.20;15.90;;;;;;;3.44;100.00;101798.19;4975174;28;20198;-75
2020/12/27 07:34:40;;;;;;;30.02;16.73;;;;;;;3.38;100.00;101792.84;4976082;28;20372;-75
2020/12/27 07:37:27;;;;;;;34.05;17.83;;;;;;;3.27;100.00;101798.56;4976360;28;20041;-76
2020/12/27 07:40:13;;;;;;;41.65;21.17;;;;;;;3.24;100.00;101778.63;4976237;28;20097;-74
2020/12/27 07:43:09;;;;;;;45.72;23.63;;;;;;;3.32;100.00;101784.91;4975755;28;20101;-75
2020/12/27 07:45:55;;;;;;;27.83;16.45;;;;;;;3.20;100.00;101784.56;4976123;28;20070;-75
2020/12/27 07:48:41;;;;;;;28.65;16.77;;;;;;;3.36;100.00;101776.38;4975628;28;20031;-76
2020/12/27 07:51:27;;;;;;;27.95;17.10;;;;;;;3.46;100.00;101780.13;4974675;28;20463;-75
2020/12/27 07:54:13;;;;;;;35.65;19.83;;;;;;;3.48;100.00;101799.16;4975705;28;20371;-75
2020/12/27 07:56:59;;;;;;;38.60;20.75;;;;;;;3.40;100.00;101792.88;4974868;28;20069;-75
2020/12/27 08:00:02;;;;;;;43.45;23.15;;;;;;;3.37;100.00;101797.97;4974926;28;20034;-76
2020/12/27 08:02:48;;;;;;;44.80;23.70;;;;;;;3.65;100.00;101806.56;4974974;28;20110;-74
2020/12/27 08:05:38;;;;;;;43.35;22.15;;;;;;;3.35;100.00;101808.31;4975841;28;20082;-74
2020/12/27 08:08:24;;;;;;;49.80;25.95;;;;;;;3.50;100.00;101806.13;4975875;28;20526;-76
2020/12/27 08:11:23;;;;;;;72.80;34.03;;;;;;;3.41;100.00;101800.69;4974715;28;20027;-75
2020/12/27 08:14:13;;;;;;;42.05;24.40;;;;;;;3.61;100.00;101791.78;4974538;28;20109;-75
2020/12/27 08:16:59;;;;;;;38.25;22.02;;;;;;;3.45;100.00;101788.69;4974651;28;20078;-75
2020/12/27 08:19:44;;;;;;;42.45;21.58;;;;;;;3.51;100.00;101784.59;4974744;28;20034;-74
2020/12/27 08:22:30;;;;;;;32.47;20.33;;;;;;;3.48;100.00;101792.28;4975202;28;20030;-74
2020/12/27 08:25:16;;;;;;;36.55;22.38;;;;;;;3.84;100.00;101777.72;4975976;28;20069;-75
2020/12/27 08:28:05;;;;;;;31.55;20.00;;;;;;;3.69;100.00;101782.50;4974643;28;20463;-75
2020/12/27 08:30:51;;;;;;;35.63;21.40;;;;;;;3.77;100.00;101788.75;4974270;28;20047;-75
2020/12/27 08:33:37;;;;;;;41.45;23.88;;;;;;;3.86;100.00;101773.44;4975328;28;20109;-73
2020/12/27 08:36:23;;;;;;;46.05;22.52;;;;;;;3.83;100.00;101777.69;4974941;28;20106;-74
2020/12/27 08:39:17;;;;;;;32.40;19.48;;;;;;;4.08;100.00;101782.66;4975724;28;20132;-75
2020/12/27 08:42:12;;;;;;;32.90;19.70;;;;;;;4.28;100.00;101782.31;4974718;28;20023;-74
2020/12/27 08:45:06;;;;;;;30.80;18.27;;;;;;;4.52;100.00;101780.31;4975438;28;20406;-75
2020/12/27 08:47:58;;;;;;;26.77;17.58;;;;;;;3.96;100.00;101762.50;4975039;28;20026;-74
2020/12/27 08:50:47;;;;;;;26.95;17.38;;;;;;;4.13;100.00;101761.19;4975366;28;20035;-75
2020/12/27 08:53:40;;;;;;;25.60;16.83;;;;;;;4.11;100.00;101752.47;4975046;28;20088;-74
2020/12/27 08:56:27;;;;;;;31.23;18.25;;;;;;;4.11;100.00;101755.06;4974856;28;20038;-75
2020/12/27 08:59:14;;;;;;;30.10;18.42;;;;;;;4.01;100.00;101750.50;4975069;28;20122;-74
2020/12/27 09:02:12;;;;;;;30.73;18.73;;;;;;;3.85;100.00;101738.00;4975368;28;20113;-75
2020/12/27 09:05:09;;;;;;;29.58;18.13;;;;;;;3.91;100.00;101735.53;4978696;28;20336;-74
2020/12/27 09:07:55;;;;;;;29.70;18.70;;;;;;;3.91;100.00;101732.09;4978848;28;20448;-75
2020/12/27 09:10:41;;;;;;;29.45;17.95;;;;;;;3.96;100.00;101728.78;4979138;28;20418;-75
2020/12/27 09:13:35;;;;;;;33.60;19.27;;;;;;;4.25;100.00;101721.69;4978643;28;20039;-75
2020/12/27 09:16:33;;;;;;;28.15;18.10;;;;;;;4.11;100.00;101710.13;4978706;28;20030;-74
2020/12/27 09:19:19;;;;;;;33.88;19.23;;;;;;;4.15;100.00;101706.78;4979794;28;20027;-75
2020/12/27 09:22:06;;;;;;;27.05;16.17;;;;;;;4.12;100.00;101702.41;4978529;28;20031;-75
2020/12/27 09:25:05;;;;;;;24.73;15.80;;;;;;;4.08;100.00;101697.09;4978593;28;20030;-76
2020/12/27 09:27:52;;;;;;;25.23;15.80;;;;;;;4.17;100.00;101690.41;4978717;28;20031;-74
2020/12/27 09:30:39;;;;;;;22.05;13.82;;;;;;;4.03;100.00;101685.75;4978144;28;20127;-75
2020/12/27 09:33:25;;;;;;;21.48;13.52;;;;;;;3.98;100.00;101676.97;4978120;28;20026;-76
2020/12/27 09:36:12;;;;;;;19.30;12.45;;;;;;;3.97;100.00;101663.13;4978266;28;20069;-74
2020/12/27 09:38:57;;;;;;;21.70;14.57;;;;;;;3.97;100.00;101659.66;4978404;28;20511;-75
2020/12/27 09:41:43;;;;;;;22.65;13.35;;;;;;;4.16;100.00;101662.72;4977625;28;20041;-75
2020/12/27 09:44:30;;;;;;;26.00;15.68;;;;;;;4.07;100.00;101652.13;4978260;28;20362;-75
2020/12/27 09:47:23;;;;;;;24.25;14.77;;;;;;;4.10;100.00;101647.00;4978052;28;20105;-74
2020/12/27 09:50:09;;;;;;;23.23;15.13;;;;;;;4.25;100.00;101647.38;4977961;28;20403;-75
2020/12/27 09:52:55;;;;;;;23.40;15.05;;;;;;;4.48;100.00;101655.66;4977916;28;20420;-75
2020/12/27 09:55:41;;;;;;;31.88;17.83;;;;;;;4.21;100.00;101637.78;4978767;28;20049;-74
2020/12/27 09:58:26;;;;;;;35.65;18.95;;;;;;;4.06;100.00;101634.81;4977954;28;20108;-75
2020/12/27 10:01:12;;;;;;;37.38;20.23;;;;;;;3.92;100.00;101623.25;4977935;28;20027;-75
2020/12/27 10:03:58;;;;;;;33.88;18.50;;;;;;;4.21;100.00;101629.09;4977869;28;20019;-74
2020/12/27 10:06:43;;;;;;;33.40;17.50;;;;;;;4.20;100.00;101622.16;4977524;28;20066;-74
2020/12/27 10:09:30;;;;;;;28.83;17.48;;;;;;;4.01;100.00;101628.66;4977513;28;20110;-75
2020/12/27 10:12:15;;;;;;;29.13;16.98;;;;;;;4.08;100.00;101624.50;4977563;28;20343;-75
2020/12/27 10:15:03;;;;;;;26.83;15.20;;;;;;;4.20;100.00;101623.06;4977907;28;20030;-74
2020/12/27 10:17:49;;;;;;;28.02;17.27;;;;;;;3.92;100.00;101607.72;4977595;28;20444;-74
2020/12/27 10:20:34;;;;;;;31.77;18.17;;;;;;;4.00;100.00;101608.75;4977090;28;20030;-73
2020/12/27 10:23:20;;;;;;;41.90;22.73;;;;;;;4.03;100.00;101603.63;4978158;28;20046;-74
2020/12/27 10:26:06;;;;;;;38.97;20.73;;;;;;;4.05;100.00;101601.97;4977053;28;20062;-74
2020/12/27 10:28:52;;;;;;;39.25;21.38;;;;;;;4.13;100.00;101603.00;4977084;28;20105;-75
2020/12/27 10:31:37;;;;;;;39.53;21.73;;;;;;;4.00;100.00;101606.16;4976967;28;20058;-75
2020/12/27 10:34:25;;;;;;;46.55;23.77;;;;;;;4.11;100.00;101602.09;4977556;28;20026;-73
2020/12/27 10:37:11;;;;;;;35.42;19.75;;;;;;;4.09;100.00;101589.94;4976335;28;20033;-75
2020/12/27 10:39:57;;;;;;;38.72;21.98;;;;;;;4.52;100.00;101584.84;4976975;28;20031;-75
2020/12/27 10:42:43;;;;;;;34.85;20.38;;;;;;;4.56;100.00;101565.88;4976694;28;20082;-75
2020/12/27 10:45:28;;;;;;;32.90;19.77;;;;;;;4.53;100.00;101558.91;4977551;28;20026;-75
2020/12/27 10:48:14;;;;;;;33.88;18.85;;;;;;;4.18;100.00;101559.88;4976678;28;20034;-75
2020/12/27 10:51:00;;;;;;;39.85;21.13;;;;;;;4.12;100.00;101549.41;4976382;28;20064;-74
2020/12/27 10:53:45;;;;;;;32.85;18.48;;;;;;;4.27;100.00;101554.03;4975462;28;20031;-75
2020/12/27 10:56:31;;;;;;;34.03;19.10;;;;;;;4.24;100.00;101551.38;4980710;28;20038;-74
2020/12/27 10:59:18;;;;;;;35.83;20.35;;;;;;;4.38;100.00;101542.19;4978877;28;20424;-74
2020/12/27 11:02:04;;;;;;;39.63;22.10;;;;;;;4.70;100.00;101535.88;4976595;28;20455;-75
2020/12/27 11:04:49;;;;;;;40.70;21.20;;;;;;;4.63;100.00;101534.88;4976341;28;20576;-74
2020/12/27 11:07:35;;;;;;;34.50;19.95;;;;;;;4.71;100.00;101524.66;4975828;28;20471;-74
2020/12/27 11:10:21;;;;;;;42.80;21.95;;;;;;;4.33;100.00;101531.69;4976542;28;20054;-74
2020/12/27 11:13:07;;;;;;;37.72;21.60;;;;;;;4.41;100.00;101529.25;4975793;28;20089;-74
2020/12/27 11:15:52;;;;;;;38.40;21.55;;;;;;;4.18;100.00;101504.59;4976641;28;20451;-74
2020/12/27 11:18:38;;;;;;;34.00;19.80;;;;;;;4.26;100.00;101497.84;4975560;28;20043;-74
2020/12/27 11:21:24;;;;;;;39.17;21.63;;;;;;;4.06;100.00;101484.44;4976178;28;20423;-74
2020/12/27 11:24:09;;;;;;;37.53;21.88;;;;;;;4.39;100.00;101471.28;4976189;28;20058;-74
2020/12/27 11:26:55;;;;;;;40.22;21.98;;;;;;;4.34;100.00;101467.72;4974998;28;20027;-74
2020/12/27 11:29:41;;;;;;;39.92;22.67;;;;;;;4.29;100.00;101485.78;4976226;28;20031;-73
2020/12/27 11:32:27;;;;;;;40.95;21.90;;;;;;;4.15;100.00;101468.22;4976212;28;20053;-74
2020/12/27 11:35:14;;;;;;;39.33;21.73;;;;;;;3.95;100.00;101448.78;4975953;28;20026;-74
2020/12/27 11:38:00;;;;;;;41.47;23.77;;;;;;;4.60;100.00;101449.22;4976631;28;20042;-74
2020/12/27 11:40:45;;;;;;;50.50;25.98;;;;;;;4.45;100.00;101456.69;4975001;28;20027;-74
2020/12/27 11:43:31;;;;;;;51.78;25.88;;;;;;;4.49;100.00;101449.84;4975454;28;20042;-74
2020/12/27 11:46:17;;;;;;;42.60;24.08;;;;;;;4.58;100.00;101447.41;4974923;28;20067;-75
2020/12/27 11:49:02;;;;;;;42.50;23.55;;;;;;;4.77;100.00;101444.31;4975679;28;20097;-73
2020/12/27 11:51:48;;;;;;;47.15;25.05;;;;;;;4.70;100.00;101435.53;4975161;28;20444;-74
2020/12/27 11:54:34;;;;;;;51.88;27.25;;;;;;;4.44;100.00;101433.31;4975631;28;20070;-74
2020/12/27 11:57:20;;;;;;;55.83;28.13;;;;;;;4.45;100.00;101438.53;4975685;28;20113;-74
2020/12/27 12:00:06;;;;;;;47.13;25.92;;;;;;;4.64;100.00;101435.44;4974965;28;20114;-74
2020/12/27 12:02:51;;;;;;;49.35;25.23;;;;;;;4.41;100.00;101428.06;4975886;28;20058;-74
2020/12/27 12:05:37;;;;;;;48.75;25.98;;;;;;;4.63;100.00;101431.06;4974852;28;20031;-75
2020/12/27 12:08:23;;;;;;;50.75;27.60;;;;;;;4.77;100.00;101423.53;4975663;28;20027;-74
2020/12/27 12:11:09;;;;;;;47.42;26.90;;;;;;;4.42;100.00;101412.53;4975258;28;20070;-74
2020/12/27 12:13:54;;;;;;;54.35;28.88;;;;;;;4.57;100.00;101415.41;4975462;28;20422;-73
2020/12/27 12:16:40;;;;;;;54.55;29.52;;;;;;;4.42;100.00;101411.69;4975923;28;20407;-74
2020/12/27 12:19:26;;;;;;;62.63;32.10;;;;;;;4.28;100.00;101415.72;4975553;28;20109;-75
2020/12/27 12:22:11;;;;;;;73.78;39.95;;;;;;;4.37;100.00;101415.88;4974868;28;20105;-75
2020/12/27 12:24:57;;;;;;;62.20;32.50;;;;;;;4.44;100.00;101399.59;4975585;28;20022;-74
2020/12/27 12:27:43;;;;;;;53.47;28.30;;;;;;;4.42;100.00;101399.56;4976019;28;20480;-75
2020/12/27 12:30:30;;;;;;;51.17;28.08;;;;;;;4.67;100.00;101393.94;4974849;28;20467;-74
2020/12/27 12:33:15;;;;;;;41.35;22.35;;;;;;;4.40;100.00;101387.41;4975548;28;20022;-75
2020/12/27 12:36:01;;;;;;;43.60;24.10;;;;;;;4.58;100.00;101383.41;4974485;28;20034;-73
2020/12/27 12:38:47;;;;;;;40.33;23.38;;;;;;;4.49;100.00;101382.38;4975848;28;20034;-75
2020/12/27 12:41:33;;;;;;;41.10;22.25;;;;;;;4.51;100.00;101373.78;4974113;28;20027;-74
2020/12/27 12:44:19;;;;;;;40.42;22.42;;;;;;;4.87;100.00;101371.78;4974504;28;20364;-74